createdAt,value
2022-12-22T00:00:31.238Z,15.70
2022-12-22T00:03:21.762Z,17.20
2022-12-22T00:06:11.999Z,17.33
2022-12-22T00:09:05.704Z,27.43
2022-12-22T00:11:56.333Z,16.23
2022-12-22T00:14:46.733Z,17.67
2022-12-22T00:17:45.472Z,17.43
2022-12-22T00:20:38.630Z,18.50
2022-12-22T00:23:29.193Z,18.50
2022-12-22T00:26:19.690Z,16.20
2022-12-22T00:29:09.868Z,23.47
2022-12-22T00:32:00.756Z,19.80
2022-12-22T00:34:59.238Z,29.17
2022-12-22T00:37:53.317Z,17.77
2022-12-22T00:40:46.751Z,27.70
2022-12-22T00:43:37.110Z,18.20
2022-12-22T00:46:31.300Z,21.17
2022-12-22T00:49:22.095Z,15.43
2022-12-22T00:52:12.672Z,15.27
2022-12-22T00:55:03.060Z,26.33
2022-12-22T00:57:54.007Z,22.67
2022-12-22T01:00:44.465Z,25.13
2022-12-22T01:03:35.202Z,27.20
2022-12-22T01:06:28.921Z,18.33
2022-12-22T01:09:19.904Z,24.10
2022-12-22T01:12:10.442Z,19.57
2022-12-22T01:15:01.025Z,18.90
2022-12-22T01:17:51.570Z,18.13
2022-12-22T01:20:41.999Z,12.43
2022-12-22T01:23:32.425Z,21.73
2022-12-22T01:26:23.898Z,18.40
2022-12-22T01:29:14.390Z,23.00
2022-12-22T01:32:04.815Z,16.53
2022-12-22T01:34:56.846Z,23.17
2022-12-22T01:37:46.867Z,17.17
2022-12-22T01:40:41.438Z,19.13
2022-12-22T01:43:41.029Z,17.87
2022-12-22T01:47:04.861Z,20.57
2022-12-22T01:50:02.325Z,21.07
2022-12-22T01:52:54.636Z,20.97
2022-12-22T01:55:45.082Z,21.73
2022-12-22T01:58:45.244Z,21.23
2022-12-22T02:01:35.709Z,16.10
2022-12-22T02:04:25.969Z,17.93
2022-12-22T02:07:22.053Z,18.83
2022-12-22T02:10:49.557Z,21.93
2022-12-22T02:13:58.199Z,16.57
2022-12-22T02:17:02.746Z,18.57
2022-12-22T02:20:30.567Z,15.27
2022-12-22T02:23:38.931Z,14.93
2022-12-22T02:26:50.488Z,14.90
2022-12-22T02:29:50.694Z,20.30
2022-12-22T02:32:44.858Z,33.83
2022-12-22T02:35:35.968Z,18.60
2022-12-22T02:38:42.497Z,17.90
2022-12-22T02:41:32.811Z,28.47
2022-12-22T02:44:58.769Z,15.30
2022-12-22T02:48:09.095Z,14.93
2022-12-22T02:51:07.636Z,18.03
2022-12-22T02:53:58.620Z,14.97
2022-12-22T02:56:49.175Z,26.87
2022-12-22T02:59:39.639Z,15.33
2022-12-22T03:02:31.424Z,14.40
2022-12-22T03:05:22.010Z,21.97
2022-12-22T03:08:12.602Z,20.90
2022-12-22T03:11:03.036Z,23.77
2022-12-22T03:13:53.447Z,21.87
2022-12-22T03:16:43.864Z,21.43
2022-12-22T03:19:34.254Z,14.13
2022-12-22T03:22:24.672Z,25.43
2022-12-22T03:25:15.186Z,16.73
2022-12-22T03:27:46.849Z,20.00
2022-12-22T03:30:18.741Z,21.63
2022-12-22T03:32:50.411Z,19.77
2022-12-22T03:35:22.225Z,18.53
2022-12-22T03:37:54.558Z,11.23
2022-12-22T03:40:26.255Z,18.60
2022-12-22T03:43:16.423Z,23.53
2022-12-22T03:46:06.846Z,23.83
2022-12-22T03:48:38.511Z,23.73
2022-12-22T03:51:10.935Z,25.67
2022-12-22T03:53:42.647Z,20.43
2022-12-22T03:56:14.310Z,17.57
2022-12-22T03:58:46.013Z,15.43
2022-12-22T04:01:17.872Z,21.57
2022-12-22T04:03:50.595Z,15.57
2022-12-22T04:06:22.271Z,21.00
2022-12-22T04:08:54.308Z,14.20
2022-12-22T04:11:49.276Z,19.47
2022-12-22T04:14:21.867Z,19.93
2022-12-22T04:16:53.602Z,16.00
2022-12-22T04:19:25.347Z,10.83
2022-12-22T04:21:57.028Z,26.83
2022-12-22T04:24:28.833Z,19.00
2022-12-22T04:27:00.556Z,26.00
2022-12-22T04:29:32.259Z,14.30
2022-12-22T04:32:04.264Z,16.57
2022-12-22T04:34:36.008Z,22.80
2022-12-22T04:37:16.807Z,16.37
2022-12-22T04:39:49.292Z,15.90
2022-12-22T04:42:20.976Z,17.83
2022-12-22T04:44:52.694Z,19.43
2022-12-22T04:47:24.406Z,23.77
2022-12-22T04:49:56.142Z,17.47
2022-12-22T04:52:27.875Z,18.47
2022-12-22T04:54:59.631Z,24.27
2022-12-22T04:57:34.297Z,18.57
2022-12-22T05:00:11.332Z,21.50
2022-12-22T05:02:43.153Z,23.67
2022-12-22T05:05:14.960Z,25.37
2022-12-22T05:07:46.703Z,19.63
2022-12-22T05:10:18.537Z,16.93
2022-12-22T05:12:56.014Z,25.60
2022-12-22T05:15:33.072Z,18.13
2022-12-22T05:18:05.081Z,14.17
2022-12-22T05:20:36.782Z,13.17
2022-12-22T05:23:08.475Z,11.87
2022-12-22T05:25:40.270Z,13.37
2022-12-22T05:28:11.967Z,12.80
2022-12-22T05:30:43.719Z,21.43
2022-12-22T05:33:15.497Z,18.67
2022-12-22T05:35:47.282Z,15.63
2022-12-22T05:38:18.959Z,16.20
2022-12-22T05:40:50.664Z,12.80
2022-12-22T05:43:22.330Z,16.33
2022-12-22T05:45:54.165Z,18.63
2022-12-22T05:48:30.862Z,19.17
2022-12-22T05:51:06.394Z,19.13
2022-12-22T05:53:38.664Z,18.47
2022-12-22T05:56:10.758Z,18.33
2022-12-22T05:58:42.470Z,15.13
2022-12-22T06:01:14.173Z,17.87
2022-12-22T06:03:45.928Z,18.17
2022-12-22T06:06:17.667Z,14.33
2022-12-22T06:08:49.478Z,15.53
2022-12-22T06:11:21.282Z,18.37
2022-12-22T06:13:52.952Z,14.53
2022-12-22T06:16:24.715Z,15.23
2022-12-22T06:18:56.444Z,14.23
2022-12-22T06:21:28.152Z,19.07
2022-12-22T06:23:59.860Z,15.63
2022-12-22T06:26:32.156Z,16.80
2022-12-22T06:29:03.853Z,14.47
2022-12-22T06:31:35.634Z,19.97
2022-12-22T06:34:09.524Z,13.73
2022-12-22T06:36:41.216Z,15.23
2022-12-22T06:39:15.204Z,20.40
2022-12-22T06:42:05.393Z,15.27
2022-12-22T06:44:37.120Z,16.87
2022-12-22T06:47:08.891Z,16.83
2022-12-22T06:49:40.649Z,15.77
2022-12-22T06:52:12.393Z,13.63
2022-12-22T06:54:44.087Z,20.37
2022-12-22T06:57:15.810Z,17.70
2022-12-22T06:59:52.245Z,18.53
2022-12-22T07:02:27.393Z,12.43
2022-12-22T07:04:59.202Z,19.93
2022-12-22T07:07:31.005Z,21.37
2022-12-22T07:10:02.971Z,16.60
2022-12-22T07:12:34.676Z,18.60
2022-12-22T07:15:07.407Z,15.97
2022-12-22T07:17:41.498Z,14.77
2022-12-22T07:20:13.986Z,13.80
2022-12-22T07:22:45.726Z,10.20
2022-12-22T07:25:17.439Z,14.03
2022-12-22T07:27:49.125Z,15.70
2022-12-22T07:30:20.841Z,12.17
2022-12-22T07:32:52.561Z,14.10
2022-12-22T07:35:24.270Z,16.00
2022-12-22T07:37:56.086Z,14.50
2022-12-22T07:40:28.275Z,16.23
2022-12-22T07:43:00.920Z,21.77
2022-12-22T07:45:34.015Z,15.10
2022-12-22T07:48:25.996Z,15.47
2022-12-22T07:51:03.312Z,11.47
2022-12-22T07:53:35.166Z,17.30
2022-12-22T07:56:07.207Z,25.63
2022-12-22T07:58:38.925Z,15.20
2022-12-22T08:01:10.680Z,18.53
2022-12-22T08:03:42.402Z,14.87
2022-12-22T08:06:14.199Z,15.37
2022-12-22T08:08:45.978Z,14.27
2022-12-22T08:11:17.746Z,12.20
2022-12-22T08:13:49.845Z,12.97
2022-12-22T08:16:22.309Z,16.00
2022-12-22T08:18:54.095Z,17.73
2022-12-22T08:21:25.822Z,13.47
2022-12-22T08:23:57.641Z,11.33
2022-12-22T08:26:37.795Z,13.03
2022-12-22T08:29:18.025Z,12.83
2022-12-22T08:31:49.966Z,17.77
2022-12-22T08:34:21.786Z,11.30
2022-12-22T08:36:59.359Z,12.23
2022-12-22T08:39:35.293Z,13.47
2022-12-22T08:42:11.071Z,16.30
2022-12-22T08:44:42.963Z,22.70
2022-12-22T08:47:17.131Z,15.80
2022-12-22T08:49:50.310Z,22.07
2022-12-22T08:52:22.016Z,16.60
2022-12-22T08:54:53.728Z,15.23
2022-12-22T08:57:25.466Z,11.87
2022-12-22T08:59:57.274Z,9.80
2022-12-22T09:02:29.883Z,11.07
2022-12-22T09:05:01.774Z,16.07
2022-12-22T09:07:33.467Z,12.50
2022-12-22T09:10:05.590Z,9.67
2022-12-22T09:12:37.298Z,11.13
2022-12-22T09:15:09.545Z,21.27
2022-12-22T09:17:43.549Z,19.13
2022-12-22T09:20:15.412Z,14.87
2022-12-22T09:22:47.132Z,18.07
2022-12-22T09:25:19.000Z,17.60
2022-12-22T09:27:50.740Z,17.07
2022-12-22T09:30:22.571Z,13.17
2022-12-22T09:32:57.363Z,21.53
2022-12-22T09:35:29.056Z,13.80
2022-12-22T09:38:00.735Z,15.27
2022-12-22T09:40:33.175Z,14.70
2022-12-22T09:43:05.241Z,16.40
2022-12-22T09:45:37.155Z,14.53
2022-12-22T09:48:13.252Z,18.70
2022-12-22T09:50:44.960Z,17.53
2022-12-22T09:53:25.756Z,10.30
2022-12-22T09:55:57.567Z,14.80
2022-12-22T09:58:33.524Z,13.80
2022-12-22T10:01:14.217Z,14.77
2022-12-22T10:04:01.229Z,8.37
2022-12-22T10:06:51.851Z,14.73
2022-12-22T10:12:21.319Z,12.60
2022-12-22T10:14:54.667Z,11.80
2022-12-22T10:17:32.448Z,11.67
2022-12-22T10:20:07.129Z,9.70
2022-12-22T10:22:48.466Z,11.07
2022-12-22T10:26:08.785Z,9.87
2022-12-22T10:28:45.547Z,10.43
2022-12-22T10:31:29.444Z,8.93
2022-12-22T10:34:17.922Z,8.13
2022-12-22T10:36:52.597Z,7.93
2022-12-22T10:39:30.678Z,7.57
2022-12-22T10:42:13.686Z,6.93
2022-12-22T10:44:48.768Z,9.53
2022-12-22T10:47:24.586Z,8.43
2022-12-22T10:52:32.178Z,11.67
2022-12-22T10:55:29.221Z,4.93
2022-12-22T10:58:21.637Z,11.73
2022-12-22T11:01:05.018Z,9.60
2022-12-22T11:03:36.944Z,7.10
2022-12-22T11:06:13.087Z,6.03
2022-12-22T11:08:50.964Z,7.83
2022-12-22T11:11:45.533Z,6.23
2022-12-22T11:14:50.697Z,8.20
2022-12-22T11:17:33.511Z,6.97
2022-12-22T11:20:23.319Z,7.07
2022-12-22T11:23:02.173Z,8.40
2022-12-22T11:26:02.967Z,7.07
2022-12-22T11:28:55.962Z,5.73
2022-12-22T11:32:10.266Z,5.90
2022-12-22T11:35:15.236Z,7.70
2022-12-22T11:37:56.365Z,6.97
2022-12-22T11:40:41.872Z,6.63
2022-12-22T11:43:40.181Z,6.20
2022-12-22T11:46:11.904Z,4.03
2022-12-22T11:49:43.271Z,4.10
2022-12-22T11:52:17.845Z,7.93
2022-12-22T11:55:14.931Z,8.63
2022-12-22T11:58:06.475Z,8.07
2022-12-22T12:01:13.029Z,11.80
2022-12-22T12:04:04.582Z,5.57
2022-12-22T12:06:56.152Z,5.10
2022-12-22T12:09:47.026Z,3.10
2022-12-22T12:12:46.699Z,1.00
2022-12-22T12:15:30.499Z,1.07
2022-12-22T12:18:29.805Z,2.00
2022-12-22T12:21:27.463Z,2.57
2022-12-22T12:24:15.463Z,2.20
2022-12-22T12:27:13.135Z,1.97
2022-12-22T12:30:36.528Z,1.60
2022-12-22T12:33:17.483Z,1.07
2022-12-22T12:35:49.216Z,1.17
2022-12-22T12:41:51.386Z,0.77
2022-12-22T12:44:28.744Z,2.40
2022-12-22T12:47:06.431Z,3.33
2022-12-22T12:49:38.200Z,0.50
2022-12-22T12:52:11.577Z,1.43
2022-12-22T12:54:47.761Z,2.83
2022-12-22T12:57:44.459Z,0.73
2022-12-22T13:00:48.755Z,1.47
2022-12-22T13:03:52.935Z,0.57
2022-12-22T13:06:51.281Z,2.10
2022-12-22T13:12:48.692Z,2.17
2022-12-22T13:15:34.695Z,1.53
2022-12-22T13:18:24.683Z,1.80
2022-12-22T13:21:33.832Z,0.30
2022-12-22T13:24:24.271Z,1.93
2022-12-22T13:26:54.574Z,0.63
2022-12-22T13:29:30.686Z,3.60
2022-12-22T13:32:17.130Z,3.33
2022-12-22T13:35:29.735Z,3.63
2022-12-22T13:37:53.883Z,1.20
2022-12-22T13:40:30.607Z,5.23
2022-12-22T13:43:12.795Z,4.17
2022-12-22T13:45:50.026Z,2.53
2022-12-22T13:48:44.609Z,1.07
2022-12-22T13:51:27.445Z,1.77
2022-12-22T13:54:11.140Z,3.90
2022-12-22T13:56:56.668Z,5.87
2022-12-22T13:59:39.245Z,1.73
2022-12-22T14:02:15.090Z,1.20
2022-12-22T14:05:11.306Z,2.77
2022-12-22T14:08:07.151Z,3.10
2022-12-22T14:10:43.609Z,2.70
2022-12-22T14:13:18.811Z,0.80
2022-12-22T14:16:01.337Z,5.07
2022-12-22T14:18:33.927Z,6.80
2022-12-22T14:21:07.361Z,2.13
2022-12-22T14:23:41.675Z,1.43
2022-12-22T14:26:25.487Z,1.27
2022-12-22T14:28:58.445Z,1.10
2022-12-22T14:31:30.315Z,1.87
2022-12-22T14:34:08.039Z,3.73
2022-12-22T14:36:45.873Z,2.30
2022-12-22T14:39:26.643Z,4.33
2022-12-22T14:42:01.520Z,4.53
2022-12-22T14:44:44.051Z,6.50
2022-12-22T14:47:19.580Z,6.13
2022-12-22T14:49:57.638Z,2.47
2022-12-22T14:52:37.652Z,8.50
2022-12-22T14:55:31.347Z,4.63
2022-12-22T14:58:27.830Z,11.53
2022-12-22T15:01:28.300Z,5.00
2022-12-22T15:04:05.282Z,3.27
2022-12-22T15:06:45.969Z,3.40
2022-12-22T15:09:28.363Z,6.13
2022-12-22T15:12:16.268Z,2.43
2022-12-22T15:14:48.936Z,1.20
2022-12-22T15:17:25.419Z,7.63
2022-12-22T15:19:59.277Z,8.47
2022-12-22T15:22:31.009Z,6.67
2022-12-22T15:25:02.839Z,3.70
2022-12-22T15:27:34.545Z,4.53
2022-12-22T15:30:07.069Z,4.97
2022-12-22T15:32:39.384Z,4.43
2022-12-22T15:35:33.119Z,2.43
2022-12-22T15:38:12.500Z,3.27
2022-12-22T15:40:44.271Z,1.97
2022-12-22T15:43:54.088Z,1.70
2022-12-22T15:46:14.594Z,4.97
2022-12-22T15:48:46.760Z,5.23
2022-12-22T15:51:25.252Z,2.80
2022-12-22T15:53:58.351Z,6.53
2022-12-22T15:56:33.578Z,5.63
2022-12-22T15:59:05.847Z,3.20
2022-12-22T16:01:37.721Z,4.70
2022-12-22T16:04:09.614Z,3.83
2022-12-22T16:06:41.471Z,2.43
2022-12-22T16:09:22.959Z,1.43
2022-12-22T16:11:54.864Z,2.13
2022-12-22T16:14:26.782Z,5.93
2022-12-22T16:16:58.465Z,7.60
2022-12-22T16:19:30.170Z,2.13
2022-12-22T16:22:01.899Z,3.10
2022-12-22T16:24:36.039Z,4.33
2022-12-22T16:27:11.263Z,2.07
2022-12-22T16:29:47.947Z,2.07
2022-12-22T16:32:28.628Z,3.80
2022-12-22T16:35:09.433Z,6.43
2022-12-22T16:37:41.425Z,1.30
2022-12-22T16:40:13.548Z,1.77
2022-12-22T16:45:52.417Z,2.47
2022-12-22T16:48:32.463Z,1.37
2022-12-22T16:51:04.961Z,3.07
2022-12-22T16:53:36.719Z,4.73
2022-12-22T16:56:14.400Z,3.00
2022-12-22T16:58:46.999Z,3.03
2022-12-22T17:01:30.021Z,2.53
2022-12-22T17:04:07.177Z,3.30
2022-12-22T17:06:39.935Z,2.73
2022-12-22T17:09:17.369Z,1.97
2022-12-22T17:11:49.485Z,2.07
2022-12-22T17:14:21.160Z,2.70
2022-12-22T17:16:53.482Z,3.47
2022-12-22T17:19:25.523Z,1.97
2022-12-22T17:21:58.843Z,1.43
2022-12-22T17:24:30.663Z,5.13
2022-12-22T17:27:05.744Z,3.70
2022-12-22T17:29:38.469Z,4.33
2022-12-22T17:32:13.968Z,3.07
2022-12-22T17:34:45.664Z,3.63
2022-12-22T17:37:21.999Z,2.87
2022-12-22T17:40:00.076Z,2.30
2022-12-22T17:42:32.138Z,5.37
2022-12-22T17:45:04.217Z,4.60
2022-12-22T17:47:42.118Z,3.90
2022-12-22T17:50:16.812Z,3.37
2022-12-22T17:52:49.678Z,5.20
2022-12-22T17:56:05.945Z,10.30
2022-12-22T17:58:18.349Z,7.20
2022-12-22T18:00:50.042Z,8.60
2022-12-22T18:03:21.894Z,3.77
2022-12-22T18:05:54.933Z,5.67
2022-12-22T18:08:26.692Z,6.13
2022-12-22T18:10:58.891Z,5.50
2022-12-22T18:13:30.690Z,4.33
2022-12-22T18:16:02.444Z,5.07
2022-12-22T18:18:34.289Z,5.97
2022-12-22T18:21:08.303Z,6.67
2022-12-22T18:23:43.242Z,6.17
2022-12-22T18:26:24.530Z,5.30
2022-12-22T18:28:57.233Z,2.60
2022-12-22T18:31:28.997Z,3.47
2022-12-22T18:34:00.730Z,6.00
2022-12-22T18:36:34.273Z,6.50
2022-12-22T18:39:17.297Z,3.13
2022-12-22T18:41:49.547Z,6.43
2022-12-22T18:44:21.258Z,4.03
2022-12-22T18:46:53.159Z,7.40
2022-12-22T18:49:27.022Z,2.67
2022-12-22T18:51:58.732Z,4.43
2022-12-22T18:54:36.672Z,7.00
2022-12-22T18:57:17.148Z,9.20
2022-12-22T18:59:49.108Z,3.90
2022-12-22T19:02:27.958Z,8.73
2022-12-22T19:04:59.764Z,6.73
2022-12-22T19:07:31.463Z,5.43
2022-12-22T19:10:03.293Z,8.83
2022-12-22T19:12:35.039Z,6.50
2022-12-22T19:15:11.069Z,6.90
2022-12-22T19:17:42.791Z,7.73
2022-12-22T19:20:16.541Z,3.63
2022-12-22T19:22:49.937Z,3.00
2022-12-22T19:25:24.827Z,2.80
2022-12-22T19:28:03.324Z,6.00
2022-12-22T19:30:35.126Z,6.83
2022-12-22T19:33:10.543Z,8.40
2022-12-22T19:35:42.339Z,5.47
2022-12-22T19:38:24.624Z,4.67
2022-12-22T19:41:02.088Z,13.33
2022-12-22T19:43:34.311Z,9.30
2022-12-22T19:46:06.118Z,3.87
2022-12-22T19:48:37.848Z,3.17
2022-12-22T19:51:15.938Z,4.70
2022-12-22T19:53:49.298Z,2.93
2022-12-22T19:56:26.915Z,6.23
2022-12-22T19:59:00.664Z,6.70
2022-12-22T20:01:32.728Z,5.40
2022-12-22T20:04:04.722Z,3.33
2022-12-22T20:06:36.398Z,3.97
2022-12-22T20:09:08.136Z,6.00
2022-12-22T20:11:40.075Z,6.07
2022-12-22T20:14:18.775Z,9.93
2022-12-22T20:16:50.559Z,3.87
2022-12-22T20:19:22.322Z,11.30
2022-12-22T20:21:54.038Z,5.73
2022-12-22T20:24:31.111Z,3.23
2022-12-22T20:27:02.815Z,4.67
2022-12-22T20:29:34.516Z,5.67
2022-12-22T20:32:06.313Z,7.13
2022-12-22T20:34:38.098Z,6.57
2022-12-22T20:37:15.112Z,13.27
2022-12-22T20:39:46.845Z,7.37
2022-12-22T20:42:23.881Z,3.23
2022-12-22T20:45:02.524Z,11.47
2022-12-22T20:47:36.284Z,7.17
2022-12-22T20:50:19.466Z,9.83
2022-12-22T20:52:51.560Z,6.17
2022-12-22T20:55:26.560Z,3.07
2022-12-22T20:57:58.339Z,6.27
2022-12-22T21:00:30.092Z,9.53
2022-12-22T21:03:01.913Z,19.37
2022-12-22T21:05:33.745Z,11.30
2022-12-22T21:08:18.224Z,12.70
2022-12-22T21:10:53.880Z,10.00
2022-12-22T21:13:25.552Z,6.10
2022-12-22T21:15:57.243Z,6.10
2022-12-22T21:18:28.957Z,7.83
2022-12-22T21:21:00.732Z,8.67
2022-12-22T21:23:32.530Z,6.77
2022-12-22T21:26:06.071Z,7.43
2022-12-22T21:28:39.105Z,13.50
2022-12-22T21:31:10.871Z,6.90
2022-12-22T21:33:42.768Z,10.57
2022-12-22T21:36:22.660Z,17.33
2022-12-22T21:38:58.153Z,5.23
2022-12-22T21:41:48.537Z,10.80
2022-12-22T21:44:20.308Z,8.10
2022-12-22T21:46:52.435Z,6.43
2022-12-22T21:49:27.488Z,10.97
2022-12-22T21:51:59.582Z,4.93
2022-12-22T21:54:31.595Z,10.87
2022-12-22T21:57:03.507Z,7.93
2022-12-22T21:59:35.246Z,6.23
2022-12-22T22:02:18.211Z,8.30
2022-12-22T22:04:54.560Z,12.37
2022-12-22T22:07:26.804Z,8.23
2022-12-22T22:09:58.493Z,6.77
2022-12-22T22:12:33.215Z,8.40
2022-12-22T22:15:06.616Z,14.90
2022-12-22T22:17:38.430Z,4.20
2022-12-22T22:20:14.862Z,4.67
2022-12-22T22:22:48.208Z,9.97
2022-12-22T22:25:20.605Z,6.93
2022-12-22T22:27:52.710Z,5.47
2022-12-22T22:30:25.927Z,8.17
2022-12-22T22:32:57.784Z,8.63
2022-12-22T22:35:29.488Z,6.20
2022-12-22T22:38:01.262Z,6.23
2022-12-22T22:40:33.008Z,11.20
2022-12-22T22:43:04.980Z,6.83
2022-12-22T22:45:40.595Z,6.70
2022-12-22T22:48:20.934Z,3.20
2022-12-22T22:50:52.769Z,4.67
2022-12-22T22:53:24.539Z,6.50
2022-12-22T22:56:01.682Z,6.30
2022-12-22T22:58:33.469Z,9.23
2022-12-22T23:01:10.267Z,8.53
2022-12-22T23:03:42.169Z,6.40
2022-12-22T23:06:14.330Z,6.20
2022-12-22T23:08:51.022Z,8.47
2022-12-22T23:11:22.891Z,5.73
2022-12-22T23:13:55.344Z,9.37
2022-12-22T23:16:30.875Z,7.03
2022-12-22T23:19:07.425Z,12.57
2022-12-22T23:21:39.233Z,9.63
2022-12-22T23:24:11.430Z,12.63
2022-12-22T23:26:43.135Z,10.10
2022-12-22T23:29:14.866Z,10.63
2022-12-22T23:31:46.694Z,10.53
2022-12-22T23:34:18.591Z,3.80
2022-12-22T23:36:50.282Z,7.87
2022-12-22T23:39:22.104Z,4.03
2022-12-22T23:41:53.858Z,5.87
2022-12-22T23:44:25.596Z,5.77
2022-12-22T23:46:57.466Z,12.97
2022-12-22T23:49:29.234Z,3.60
2022-12-22T23:52:00.972Z,6.83
2022-12-22T23:54:32.693Z,10.03
2022-12-22T23:57:04.442Z,7.10
2022-12-22T23:59:36.235Z,8.30
